createdAt,value
2017-07-30T00:00:52.384Z,0
2017-07-30T00:01:53.785Z,0
2017-07-30T00:02:55.183Z,0
2017-07-30T00:03:56.582Z,0
2017-07-30T00:04:57.995Z,0
2017-07-30T00:05:59.379Z,0
2017-07-30T00:07:00.782Z,0
2017-07-30T00:08:02.183Z,0
2017-07-30T00:09:03.579Z,0
2017-07-30T00:10:04.979Z,0
2017-07-30T00:11:06.377Z,0
2017-07-30T00:12:07.779Z,0
2017-07-30T00:13:09.177Z,0
2017-07-30T00:14:10.586Z,0
2017-07-30T00:15:11.988Z,0
2017-07-30T00:16:13.389Z,0
2017-07-30T00:17:14.785Z,0
2017-07-30T00:18:16.189Z,0
2017-07-30T00:19:17.585Z,0
2017-07-30T00:20:18.984Z,0
2017-07-30T00:21:20.386Z,0
2017-07-30T00:22:21.788Z,0
2017-07-30T00:23:23.193Z,0
2017-07-30T00:24:24.591Z,0
2017-07-30T00:25:25.989Z,0
2017-07-30T00:26:27.390Z,0
2017-07-30T00:27:28.788Z,0
2017-07-30T00:28:30.192Z,0
2017-07-30T00:29:31.591Z,0
2017-07-30T00:30:32.988Z,0
2017-07-30T00:31:34.388Z,0
2017-07-30T00:32:35.786Z,0
2017-07-30T00:33:37.184Z,0
2017-07-30T00:34:38.601Z,0
2017-07-30T00:35:40.005Z,0
2017-07-30T00:36:41.404Z,0
2017-07-30T00:37:42.808Z,0
2017-07-30T00:38:44.206Z,0
2017-07-30T00:39:45.604Z,0
2017-07-30T00:40:47.002Z,0
2017-07-30T00:41:48.407Z,0
2017-07-30T00:42:49.808Z,0
2017-07-30T00:43:51.203Z,0
2017-07-30T00:44:52.605Z,0
2017-07-30T00:45:54.019Z,0
2017-07-30T00:46:55.417Z,0
2017-07-30T00:47:56.823Z,0
2017-07-30T00:48:58.248Z,0
2017-07-30T00:49:59.631Z,0
2017-07-30T00:51:01.032Z,0
2017-07-30T00:52:02.431Z,0
2017-07-30T00:53:03.829Z,0
2017-07-30T00:54:05.227Z,0
2017-07-30T00:55:06.629Z,0
2017-07-30T00:56:08.031Z,0
2017-07-30T00:57:09.431Z,0
2017-07-30T00:58:10.832Z,0
2017-07-30T00:59:12.232Z,0
2017-07-30T01:00:13.635Z,0
2017-07-30T01:01:15.033Z,0
2017-07-30T01:02:16.435Z,0
2017-07-30T01:03:17.834Z,0
2017-07-30T01:04:19.234Z,0
2017-07-30T01:05:20.633Z,0
2017-07-30T01:06:22.033Z,0
2017-07-30T01:07:23.435Z,0
2017-07-30T01:08:24.836Z,0
2017-07-30T01:09:26.235Z,0
2017-07-30T01:10:27.635Z,0
2017-07-30T01:11:29.038Z,0
2017-07-30T01:12:30.436Z,0
2017-07-30T01:13:31.834Z,0
2017-07-30T01:14:33.232Z,0
2017-07-30T01:15:34.632Z,0
2017-07-30T01:16:36.033Z,0
2017-07-30T01:17:37.435Z,0
2017-07-30T01:18:38.836Z,0
2017-07-30T01:19:40.234Z,0
2017-07-30T01:20:41.633Z,0
2017-07-30T01:21:43.032Z,0
2017-07-30T01:22:44.431Z,0
2017-07-30T01:23:45.830Z,0
2017-07-30T01:24:47.230Z,0
2017-07-30T01:25:48.629Z,0
2017-07-30T01:26:50.031Z,0
2017-07-30T01:27:51.431Z,0
2017-07-30T01:28:52.826Z,0
2017-07-30T01:29:54.226Z,0
2017-07-30T01:30:55.624Z,0
2017-07-30T01:31:57.023Z,0
2017-07-30T01:32:58.419Z,0
2017-07-30T01:33:59.824Z,0
2017-07-30T01:35:01.222Z,0
2017-07-30T01:36:02.620Z,0
2017-07-30T01:37:04.023Z,0
2017-07-30T01:38:05.418Z,0
2017-07-30T01:39:06.820Z,0
2017-07-30T01:40:08.219Z,0
2017-07-30T01:41:09.621Z,0
2017-07-30T01:42:11.017Z,0
2017-07-30T01:43:12.417Z,0
2017-07-30T01:44:13.817Z,0
2017-07-30T01:45:15.218Z,0
2017-07-30T01:46:16.616Z,0
2017-07-30T01:47:18.017Z,0
2017-07-30T01:48:19.422Z,0
2017-07-30T01:49:20.820Z,0
2017-07-30T01:50:22.216Z,0
2017-07-30T01:51:23.618Z,0
2017-07-30T01:52:25.015Z,0
2017-07-30T01:53:26.416Z,0
2017-07-30T01:54:28.536Z,0
2017-07-30T01:55:29.943Z,0
2017-07-30T01:56:31.336Z,0
2017-07-30T01:57:32.733Z,0
2017-07-30T01:58:34.134Z,0
2017-07-30T01:59:35.531Z,0
2017-07-30T02:00:36.938Z,0
2017-07-30T02:01:38.336Z,0
2017-07-30T02:02:39.742Z,0
2017-07-30T02:03:41.140Z,0
2017-07-30T02:04:42.536Z,0
2017-07-30T02:05:43.936Z,0
2017-07-30T02:06:45.335Z,0
2017-07-30T02:07:46.737Z,0
2017-07-30T02:08:48.137Z,0
2017-07-30T02:09:49.538Z,0
2017-07-30T02:10:50.940Z,0
2017-07-30T02:11:52.339Z,0
2017-07-30T02:12:53.734Z,0
2017-07-30T02:13:55.135Z,0
2017-07-30T02:14:56.535Z,0
2017-07-30T02:15:57.946Z,0
2017-07-30T02:16:59.341Z,0
2017-07-30T02:18:00.737Z,0
2017-07-30T02:19:02.141Z,0
2017-07-30T02:20:03.534Z,0
2017-07-30T02:21:04.933Z,0
2017-07-30T02:22:06.336Z,0
2017-07-30T02:23:07.732Z,0
2017-07-30T02:24:09.151Z,0
2017-07-30T02:25:10.534Z,0
2017-07-30T02:26:11.935Z,0
2017-07-30T02:27:13.340Z,0
2017-07-30T02:28:14.734Z,0
2017-07-30T02:29:16.136Z,0
2017-07-30T02:30:17.537Z,0
2017-07-30T02:31:18.938Z,0
2017-07-30T02:32:20.336Z,0
2017-07-30T02:33:21.732Z,0
2017-07-30T02:34:23.137Z,0
2017-07-30T02:35:24.582Z,0
2017-07-30T02:36:25.971Z,0
2017-07-30T02:37:27.395Z,0
2017-07-30T02:38:28.799Z,0
2017-07-30T02:39:30.187Z,0
2017-07-30T02:40:31.584Z,0
2017-07-30T02:41:32.987Z,0
2017-07-30T02:42:34.383Z,0
2017-07-30T02:43:35.781Z,0
2017-07-30T02:44:37.183Z,0
2017-07-30T02:45:38.582Z,0
2017-07-30T02:46:39.981Z,0
2017-07-30T02:47:41.377Z,0
2017-07-30T02:48:42.781Z,0
2017-07-30T02:49:44.179Z,0
2017-07-30T02:50:45.579Z,0
2017-07-30T02:51:46.981Z,0
2017-07-30T02:52:48.381Z,0
2017-07-30T02:53:49.782Z,0
2017-07-30T02:54:51.180Z,0
2017-07-30T02:55:52.576Z,0
2017-07-30T02:56:53.977Z,0
2017-07-30T02:57:55.375Z,0
2017-07-30T02:58:56.778Z,0
2017-07-30T02:59:58.178Z,0
2017-07-30T03:00:59.576Z,0
2017-07-30T03:02:00.974Z,0
2017-07-30T03:03:02.373Z,0
2017-07-30T03:04:03.779Z,0
2017-07-30T03:05:05.172Z,0
2017-07-30T03:06:06.578Z,0
2017-07-30T03:07:07.978Z,0
2017-07-30T03:08:09.377Z,0
2017-07-30T03:09:10.776Z,0
2017-07-30T03:10:12.172Z,0
2017-07-30T03:11:13.577Z,0
2017-07-30T03:12:14.974Z,0
2017-07-30T03:13:16.376Z,0
2017-07-30T03:14:17.777Z,0
2017-07-30T03:15:19.176Z,0
2017-07-30T03:16:20.570Z,0
2017-07-30T03:17:21.967Z,0
2017-07-30T03:18:23.366Z,0
2017-07-30T03:19:24.771Z,0
2017-07-30T03:20:26.164Z,0
2017-07-30T03:21:27.565Z,0
2017-07-30T03:22:28.964Z,0
2017-07-30T03:23:30.365Z,0
2017-07-30T03:24:31.764Z,0
2017-07-30T03:25:33.172Z,4
2017-07-30T03:26:34.573Z,4
2017-07-30T03:27:35.980Z,4
2017-07-30T03:28:37.376Z,0
2017-07-30T03:29:38.773Z,0
2017-07-30T03:30:40.172Z,0
2017-07-30T03:31:41.571Z,4
2017-07-30T03:32:42.966Z,4
2017-07-30T03:33:44.365Z,4
2017-07-30T03:34:45.768Z,4
2017-07-30T03:35:47.167Z,4
2017-07-30T03:36:48.561Z,4
2017-07-30T03:37:49.960Z,4
2017-07-30T03:38:51.358Z,4
2017-07-30T03:39:52.762Z,8
2017-07-30T03:40:54.163Z,8
2017-07-30T03:41:55.564Z,8
2017-07-30T03:42:56.969Z,8
2017-07-30T03:43:58.364Z,12
2017-07-30T03:44:59.763Z,12
2017-07-30T03:46:01.161Z,16
2017-07-30T03:47:02.557Z,16
2017-07-30T03:48:03.973Z,20
2017-07-30T03:49:05.369Z,24
2017-07-30T03:50:06.786Z,24
2017-07-30T03:51:08.184Z,24
2017-07-30T03:52:09.583Z,28
2017-07-30T03:53:10.981Z,32
2017-07-30T03:54:12.380Z,36
2017-07-30T03:55:13.776Z,40
2017-07-30T03:56:15.180Z,44
2017-07-30T03:57:16.583Z,44
2017-07-30T03:58:17.984Z,52
2017-07-30T03:59:19.384Z,56
2017-07-30T04:00:20.783Z,60
2017-07-30T04:01:22.179Z,64
2017-07-30T04:02:23.582Z,68
2017-07-30T04:03:24.981Z,72
2017-07-30T04:04:26.384Z,76
2017-07-30T04:05:27.783Z,80
2017-07-30T04:06:29.183Z,84
2017-07-30T04:07:30.579Z,88
2017-07-30T04:08:31.977Z,92
2017-07-30T04:09:33.375Z,96
2017-07-30T04:10:34.780Z,100
2017-07-30T04:11:36.182Z,108
2017-07-30T04:12:37.582Z,112
2017-07-30T04:13:38.982Z,116
2017-07-30T04:14:40.381Z,124
2017-07-30T04:15:41.780Z,132
2017-07-30T04:16:43.182Z,136
2017-07-30T04:17:44.583Z,144
2017-07-30T04:18:45.989Z,152
2017-07-30T04:19:47.394Z,156
2017-07-30T04:20:48.788Z,168
2017-07-30T04:21:50.188Z,168
2017-07-30T04:22:51.589Z,180
2017-07-30T04:23:52.993Z,188
2017-07-30T04:24:54.403Z,192
2017-07-30T04:25:55.798Z,200
2017-07-30T04:26:57.203Z,208
2017-07-30T04:27:58.601Z,216
2017-07-30T04:29:00.001Z,228
2017-07-30T04:30:01.405Z,236
2017-07-30T04:31:02.808Z,248
2017-07-30T04:32:04.212Z,260
2017-07-30T04:33:05.618Z,272
2017-07-30T04:34:07.018Z,284
2017-07-30T04:35:08.420Z,296
2017-07-30T04:36:09.828Z,308
2017-07-30T04:37:11.231Z,324
2017-07-30T04:38:12.633Z,340
2017-07-30T04:39:14.034Z,356
2017-07-30T04:40:15.437Z,372
2017-07-30T04:41:16.838Z,384
2017-07-30T04:42:18.239Z,400
2017-07-30T04:43:19.638Z,412
2017-07-30T04:44:21.040Z,424
2017-07-30T04:45:22.442Z,436
2017-07-30T04:46:23.845Z,444
2017-07-30T04:47:25.249Z,460
2017-07-30T04:48:26.649Z,476
2017-07-30T04:49:28.053Z,492
2017-07-30T04:50:29.455Z,500
2017-07-30T04:51:30.861Z,512
2017-07-30T04:52:32.260Z,520
2017-07-30T04:53:33.671Z,528
2017-07-30T04:54:35.078Z,536
2017-07-30T04:55:36.480Z,544
2017-07-30T04:56:37.882Z,556
2017-07-30T04:57:39.283Z,564
2017-07-30T04:58:40.685Z,572
2017-07-30T04:59:42.088Z,576
2017-07-30T05:00:43.490Z,584
2017-07-30T05:01:44.910Z,588
2017-07-30T05:02:46.310Z,596
2017-07-30T05:03:47.717Z,600
2017-07-30T05:04:49.123Z,604
2017-07-30T05:05:50.524Z,608
2017-07-30T05:06:51.966Z,616
2017-07-30T05:07:53.372Z,620
2017-07-30T05:08:54.777Z,620
2017-07-30T05:09:56.177Z,628
2017-07-30T05:10:57.580Z,632
2017-07-30T05:11:58.984Z,640
2017-07-30T05:13:00.386Z,652
2017-07-30T05:14:01.788Z,664
2017-07-30T05:15:03.199Z,676
2017-07-30T05:16:04.605Z,688
2017-07-30T05:17:06.003Z,712
2017-07-30T05:18:07.404Z,732
2017-07-30T05:19:08.804Z,756
2017-07-30T05:20:10.211Z,796
2017-07-30T05:21:11.612Z,828
2017-07-30T05:22:13.022Z,856
2017-07-30T05:23:14.432Z,872
2017-07-30T05:24:15.828Z,876
2017-07-30T05:25:17.228Z,880
2017-07-30T05:26:18.629Z,884
2017-07-30T05:27:20.043Z,892
2017-07-30T05:28:21.444Z,892
2017-07-30T05:29:22.848Z,916
2017-07-30T05:30:24.251Z,936
2017-07-30T05:31:25.654Z,960
2017-07-30T05:32:27.113Z,988
2017-07-30T05:33:28.523Z,1012
2017-07-30T05:34:30.083Z,1036
2017-07-30T05:35:31.487Z,1048
2017-07-30T05:36:32.903Z,1076
2017-07-30T05:37:34.305Z,1056
2017-07-30T05:38:35.707Z,1080
2017-07-30T05:39:37.105Z,1212
2017-07-30T05:40:38.512Z,1216
2017-07-30T05:41:39.920Z,1316
2017-07-30T05:42:41.451Z,1348
2017-07-30T05:43:42.861Z,1364
2017-07-30T05:44:44.486Z,1372
2017-07-30T05:45:45.871Z,1404
2017-07-30T05:46:47.286Z,1404
2017-07-30T05:47:48.693Z,1376
2017-07-30T05:48:50.119Z,1376
2017-07-30T05:49:51.511Z,1392
2017-07-30T05:50:52.922Z,1424
2017-07-30T05:51:54.326Z,1464
2017-07-30T05:52:55.725Z,1504
2017-07-30T05:53:57.130Z,1544
2017-07-30T05:54:58.533Z,1616
2017-07-30T05:55:59.936Z,1680
2017-07-30T05:57:01.343Z,1744
2017-07-30T05:58:02.753Z,1772
2017-07-30T05:59:04.194Z,1804
2017-07-30T06:00:05.600Z,1884
2017-07-30T06:01:07.017Z,1956
2017-07-30T06:02:08.425Z,2028
2017-07-30T06:03:09.838Z,2068
2017-07-30T06:04:11.245Z,2124
2017-07-30T06:05:12.668Z,2164
2017-07-30T06:06:14.083Z,2196
2017-07-30T06:07:15.497Z,2212
2017-07-30T06:08:16.912Z,2224
2017-07-30T06:09:18.324Z,2172
2017-07-30T06:10:19.729Z,2132
2017-07-30T06:11:21.138Z,2100
2017-07-30T06:12:22.562Z,2080
2017-07-30T06:13:24.155Z,2064
2017-07-30T06:14:25.590Z,2064
2017-07-30T06:15:26.995Z,2076
2017-07-30T06:16:28.397Z,2092
2017-07-30T06:17:29.801Z,2056
2017-07-30T06:18:31.205Z,2044
2017-07-30T06:19:32.628Z,2100
2017-07-30T06:20:34.027Z,2160
2017-07-30T06:21:35.479Z,2180
2017-07-30T06:22:36.881Z,2240
2017-07-30T06:23:38.282Z,2236
2017-07-30T06:24:39.690Z,2220
2017-07-30T06:25:41.096Z,2172
2017-07-30T06:26:42.508Z,2156
2017-07-30T06:27:43.915Z,2164
2017-07-30T06:28:45.420Z,2152
2017-07-30T06:29:46.827Z,2136
2017-07-30T06:30:48.292Z,2160
2017-07-30T06:31:49.700Z,2172
2017-07-30T06:32:51.202Z,2200
2017-07-30T06:33:52.609Z,2180
2017-07-30T06:34:54.057Z,2268
2017-07-30T06:35:55.463Z,2424
2017-07-30T06:36:56.862Z,2328
2017-07-30T06:37:58.293Z,2372
2017-07-30T06:38:59.697Z,2348
2017-07-30T06:40:01.101Z,2580
2017-07-30T06:41:02.506Z,2612
2017-07-30T06:42:03.946Z,2552
2017-07-30T06:43:05.318Z,2724
2017-07-30T06:44:06.719Z,2772
2017-07-30T06:45:08.230Z,2828
2017-07-30T06:46:09.622Z,2820
2017-07-30T06:47:11.029Z,2704
2017-07-30T06:48:12.435Z,2580
2017-07-30T06:49:13.849Z,2484
2017-07-30T06:50:15.245Z,2372
2017-07-30T06:51:16.689Z,2360
2017-07-30T06:52:18.100Z,2300
2017-07-30T06:53:19.502Z,2172
2017-07-30T06:54:20.909Z,2104
2017-07-30T06:55:22.314Z,2060
2017-07-30T06:56:23.722Z,2020
2017-07-30T06:57:25.123Z,1928
2017-07-30T06:58:26.531Z,1904
2017-07-30T06:59:27.935Z,1896
2017-07-30T07:00:29.335Z,1872
2017-07-30T07:01:30.755Z,1904
2017-07-30T07:02:32.161Z,1800
2017-07-30T07:03:33.569Z,1732
2017-07-30T07:04:34.980Z,1676
2017-07-30T07:05:36.380Z,1700
2017-07-30T07:06:37.784Z,1732
2017-07-30T07:07:39.186Z,1860
2017-07-30T07:08:40.594Z,1876
2017-07-30T07:09:42.001Z,2176
2017-07-30T07:10:43.409Z,2556
2017-07-30T07:11:44.969Z,2680
2017-07-30T07:12:46.370Z,2616
2017-07-30T07:13:47.771Z,3004
2017-07-30T07:14:49.177Z,3088
2017-07-30T07:15:50.581Z,2816
2017-07-30T07:16:51.987Z,2116
2017-07-30T07:17:53.394Z,2300
2017-07-30T07:18:54.799Z,2624
2017-07-30T07:19:56.201Z,2588
2017-07-30T07:20:57.605Z,2648
2017-07-30T07:21:59.007Z,2736
2017-07-30T07:23:00.417Z,2840
2017-07-30T07:24:01.852Z,2884
2017-07-30T07:25:03.269Z,3324
2017-07-30T07:26:04.673Z,2864
2017-07-30T07:27:06.074Z,2516
2017-07-30T07:28:07.477Z,2836
2017-07-30T07:29:09.578Z,2872
2017-07-30T07:30:10.982Z,3232
2017-07-30T07:31:12.397Z,3132
2017-07-30T07:32:13.804Z,3008
2017-07-30T07:33:15.206Z,2684
2017-07-30T07:34:16.657Z,2584
2017-07-30T07:35:18.074Z,2800
2017-07-30T07:36:19.480Z,2892
2017-07-30T07:37:20.879Z,3072
2017-07-30T07:38:22.302Z,2620
2017-07-30T07:39:24.350Z,2624
2017-07-30T07:40:25.754Z,2968
2017-07-30T07:41:27.156Z,3304
2017-07-30T07:42:28.562Z,3496
2017-07-30T07:43:29.962Z,3472
2017-07-30T07:44:31.369Z,3212
2017-07-30T07:45:33.395Z,3560
2017-07-30T07:46:35.357Z,3284
2017-07-30T07:47:36.762Z,3404
2017-07-30T07:48:38.165Z,3084
2017-07-30T07:49:39.568Z,2684
2017-07-30T07:50:40.974Z,3040
2017-07-30T07:51:42.380Z,4108
2017-07-30T07:52:44.402Z,4620
2017-07-30T07:53:45.803Z,4520
2017-07-30T07:54:47.206Z,4592
2017-07-30T07:55:48.618Z,3972
2017-07-30T07:56:50.018Z,3760
2017-07-30T07:57:51.420Z,3940
2017-07-30T07:58:52.827Z,3504
2017-07-30T07:59:54.235Z,4720
2017-07-30T08:00:55.643Z,4352
2017-07-30T08:01:57.048Z,4564
2017-07-30T08:02:58.453Z,3464
2017-07-30T08:03:59.867Z,4304
2017-07-30T08:05:01.279Z,4196
2017-07-30T08:06:02.689Z,4392
2017-07-30T08:07:05.243Z,4432
2017-07-30T08:08:06.043Z,4588
2017-07-30T08:09:07.425Z,4340
2017-07-30T08:10:08.843Z,3552
2017-07-30T08:11:10.257Z,2704
2017-07-30T08:12:11.660Z,3936
2017-07-30T08:13:13.071Z,3676
2017-07-30T08:14:15.499Z,2596
2017-07-30T08:15:16.908Z,2716
2017-07-30T08:16:18.310Z,2848
2017-07-30T08:17:19.712Z,4240
2017-07-30T08:18:21.116Z,4708
2017-07-30T08:19:22.523Z,3264
2017-07-30T08:20:23.926Z,4476
2017-07-30T08:21:26.450Z,3808
2017-07-30T08:22:27.859Z,2744
2017-07-30T08:23:29.274Z,2384
2017-07-30T08:24:30.680Z,2488
2017-07-30T08:25:32.089Z,2880
2017-07-30T08:26:33.525Z,2904
2017-07-30T08:27:34.937Z,2892
2017-07-30T08:28:37.456Z,2684
2017-07-30T08:29:38.868Z,3388
2017-07-30T08:30:40.269Z,3332
2017-07-30T08:31:41.827Z,4896
2017-07-30T08:32:43.323Z,3764
2017-07-30T08:33:45.162Z,5308
2017-07-30T08:34:47.147Z,5076
2017-07-30T08:36:52.306Z,5416
2017-07-30T08:37:54.430Z,5568
2017-07-30T08:38:55.898Z,3852
2017-07-30T08:39:57.318Z,5844
2017-07-30T08:40:58.722Z,6092
2017-07-30T08:42:00.202Z,6568
2017-07-30T08:43:02.675Z,5980
2017-07-30T08:44:05.040Z,6060
2017-07-30T08:45:06.800Z,6056
2017-07-30T08:46:08.357Z,5672
2017-07-30T08:47:10.169Z,5284
2017-07-30T08:48:11.579Z,4344
2017-07-30T08:49:13.503Z,5676
2017-07-30T08:50:15.521Z,5828
2017-07-30T08:51:17.185Z,6708
2017-07-30T08:52:19.058Z,6548
2017-07-30T08:53:20.827Z,5528
2017-07-30T08:54:22.507Z,5240
2017-07-30T08:55:24.255Z,5756
2017-07-30T08:56:26.155Z,6416
2017-07-30T08:57:29.501Z,6952
2017-07-30T08:58:31.359Z,6620
2017-07-30T08:59:32.766Z,6256
2017-07-30T09:00:34.490Z,6212
2017-07-30T09:01:36.230Z,5740
2017-07-30T09:02:37.696Z,5888
2017-07-30T09:03:39.551Z,6072
2017-07-30T09:04:41.807Z,5884
2017-07-30T09:05:43.497Z,6400
2017-07-30T09:06:45.140Z,6828
2017-07-30T09:07:47.224Z,7304
2017-07-30T09:08:49.502Z,6372
2017-07-30T09:09:51.058Z,6224
2017-07-30T09:10:52.589Z,6488
2017-07-30T09:11:54.382Z,7096
2017-07-30T09:12:56.329Z,7808
2017-07-30T09:13:59.881Z,7444
2017-07-30T09:15:01.719Z,7528
2017-07-30T09:16:03.204Z,7344
2017-07-30T09:17:04.609Z,7436
2017-07-30T09:18:06.017Z,5660
2017-07-30T09:19:08.696Z,7544
2017-07-30T09:58:42.758Z,6192
2017-07-30T09:59:44.162Z,5876
2017-07-30T10:00:45.568Z,7488
2017-07-30T10:01:46.974Z,9012
2017-07-30T10:02:48.381Z,8080
2017-07-30T10:03:49.785Z,9336
2017-07-30T10:04:51.196Z,8996
2017-07-30T10:05:52.604Z,8200
2017-07-30T10:06:54.010Z,10408
2017-07-30T10:07:55.416Z,10172
2017-07-30T10:08:56.814Z,9708
2017-07-30T10:09:58.227Z,10268
2017-07-30T10:10:59.640Z,8972
2017-07-30T10:12:01.043Z,10688
2017-07-30T10:13:02.453Z,11112
2017-07-30T10:14:03.857Z,10920
2017-07-30T10:15:05.264Z,10744
2017-07-30T10:16:06.670Z,10020
2017-07-30T10:17:08.082Z,10036
2017-07-30T10:18:09.498Z,9992
2017-07-30T10:19:10.907Z,9876
2017-07-30T10:20:12.319Z,10280
2017-07-30T10:21:13.731Z,11168
2017-07-30T10:22:15.135Z,11788
2017-07-30T10:23:16.543Z,11052
2017-07-30T10:24:17.951Z,11864
2017-07-30T10:25:19.356Z,11048
2017-07-30T10:26:20.772Z,10536
2017-07-30T10:27:22.181Z,11612
2017-07-30T10:28:23.587Z,12152
2017-07-30T10:29:25.034Z,12060
2017-07-30T10:30:26.443Z,12492
2017-07-30T10:31:27.858Z,11864
2017-07-30T10:32:29.261Z,13572
2017-07-30T10:33:30.670Z,14056
2017-07-30T10:34:32.080Z,11964
2017-07-30T10:35:33.485Z,13504
2017-07-30T10:36:34.891Z,13832
2017-07-30T10:37:36.300Z,14980
2017-07-30T10:38:37.706Z,16960
2017-07-30T10:39:39.115Z,17856
2017-07-30T10:40:40.522Z,19072
2017-07-30T10:41:41.933Z,19808
2017-07-30T10:42:43.341Z,16192
2017-07-30T10:43:44.749Z,11708
2017-07-30T10:44:46.784Z,14960
2017-07-30T10:45:48.188Z,17536
2017-07-30T10:46:49.597Z,18720
2017-07-30T10:47:51.008Z,15612
2017-07-30T10:48:52.419Z,17824
2017-07-30T10:49:53.822Z,8052
2017-07-30T10:50:55.229Z,15116
2017-07-30T10:51:56.636Z,13424
2017-07-30T10:52:58.045Z,15328
2017-07-30T10:53:59.465Z,7620
2017-07-30T10:55:00.878Z,19904
2017-07-30T10:56:02.609Z,16928
2017-07-30T10:57:04.392Z,20256
2017-07-30T10:58:05.828Z,14936
2017-07-30T10:59:07.255Z,18816
2017-07-30T11:00:08.970Z,22752
2017-07-30T11:01:11.038Z,6924
2017-07-30T11:02:12.846Z,13408
2017-07-30T11:03:14.259Z,18208
2017-07-30T11:04:15.750Z,16640
2017-07-30T11:05:17.131Z,17472
2017-07-30T11:06:18.862Z,12800
2017-07-30T11:07:20.801Z,25440
2017-07-30T11:08:22.514Z,20896
2017-07-30T11:09:24.019Z,22816
2017-07-30T11:10:25.395Z,34752
2017-07-30T11:11:26.799Z,27008
2017-07-30T11:12:28.311Z,22144
2017-07-30T11:13:29.914Z,23232
2017-07-30T11:14:31.754Z,22112
2017-07-30T11:15:33.643Z,16928
2017-07-30T11:16:35.565Z,15356
2017-07-30T11:17:37.162Z,16928
2017-07-30T11:18:38.606Z,13272
2017-07-30T11:19:40.220Z,12572
2017-07-30T11:20:42.059Z,10716
2017-07-30T11:21:43.567Z,10180
2017-07-30T11:22:44.968Z,11056
2017-07-30T11:23:46.470Z,10584
2017-07-30T11:24:48.168Z,9904
2017-07-30T11:25:49.847Z,8352
2017-07-30T11:26:51.561Z,8108
2017-07-30T11:27:52.970Z,8276
2017-07-30T11:28:54.376Z,8572
2017-07-30T11:29:55.967Z,8824
2017-07-30T11:30:57.808Z,8812
2017-07-30T11:31:59.689Z,8956
2017-07-30T11:33:01.637Z,8956
2017-07-30T11:34:03.046Z,8696
2017-07-30T11:35:04.608Z,8380
2017-07-30T11:36:06.233Z,9036
2017-07-30T11:37:07.798Z,9200
2017-07-30T11:38:09.530Z,9852
2017-07-30T11:39:10.958Z,11304
2017-07-30T11:40:12.409Z,13928
2017-07-30T11:41:14.006Z,20448
2017-07-30T11:42:15.603Z,23328
2017-07-30T11:43:17.185Z,22464
2017-07-30T11:44:18.793Z,21440
2017-07-30T11:45:20.104Z,22144
2017-07-30T11:46:21.841Z,21312
2017-07-30T11:47:25.309Z,21504
2017-07-30T11:48:26.714Z,18528
2017-07-30T11:49:28.123Z,17696
2017-07-30T11:50:29.645Z,15504
2017-07-30T11:51:31.170Z,18528
2017-07-30T11:52:33.312Z,17792
2017-07-30T11:53:35.056Z,21888
2017-07-30T11:54:36.474Z,26464
2017-07-30T11:55:37.893Z,22368
2017-07-30T11:56:39.504Z,26144
2017-07-30T11:57:41.251Z,28448
2017-07-30T11:58:42.666Z,27104
2017-07-30T11:59:44.081Z,24768
2017-07-30T12:00:45.648Z,18144
2017-07-30T12:01:47.634Z,21344
2017-07-30T12:02:49.415Z,20480
2017-07-30T12:03:51.149Z,12896
2017-07-30T12:04:52.523Z,22272
2017-07-30T12:05:53.933Z,24160
2017-07-30T12:06:55.347Z,22688
2017-07-30T12:07:56.762Z,24448
2017-07-30T12:08:58.165Z,23776
2017-07-30T12:09:59.572Z,22432
2017-07-30T12:11:00.982Z,23040
2017-07-30T12:12:02.438Z,21888
2017-07-30T12:13:04.045Z,18688
2017-07-30T12:14:05.525Z,8188
2017-07-30T12:15:06.908Z,7588
2017-07-30T12:16:08.316Z,13876
2017-07-30T12:17:09.726Z,10048
2017-07-30T12:18:11.136Z,15188
2017-07-30T12:19:12.541Z,14320
2017-07-30T12:20:13.956Z,15176
2017-07-30T12:21:15.371Z,11636
2017-07-30T12:22:17.133Z,14792
2017-07-30T12:23:18.695Z,15440
2017-07-30T12:24:20.223Z,17600
2017-07-30T12:25:21.661Z,21440
2017-07-30T12:26:23.190Z,10644
2017-07-30T12:27:24.758Z,19904
2017-07-30T12:28:26.516Z,25760
2017-07-30T12:29:28.037Z,22656
2017-07-30T12:30:29.461Z,20736
2017-07-30T12:31:31.065Z,18720
2017-07-30T12:32:32.797Z,13392
2017-07-30T12:33:34.201Z,24192
2017-07-30T12:34:35.610Z,22720
2017-07-30T12:35:37.150Z,29536
2017-07-30T12:36:38.823Z,20448
2017-07-30T12:37:40.373Z,32448
2017-07-30T12:38:41.868Z,5948
2017-07-30T12:39:43.227Z,35552
2017-07-30T12:40:44.813Z,34304
2017-07-30T12:41:46.502Z,32704
2017-07-30T12:42:48.094Z,5932
2017-07-30T12:43:49.520Z,5736
2017-07-30T12:44:51.061Z,6832
2017-07-30T12:45:52.677Z,6580
2017-07-30T12:46:54.136Z,20544
2017-07-30T12:47:55.576Z,7556
2017-07-30T12:48:57.196Z,6132
2017-07-30T12:49:58.635Z,5728
2017-07-30T12:51:00.204Z,7004
2017-07-30T12:52:01.615Z,30976
2017-07-30T12:53:03.281Z,29152
2017-07-30T12:54:04.916Z,6208
2017-07-30T12:55:06.589Z,6284
2017-07-30T12:56:08.265Z,6476
2017-07-30T12:57:09.664Z,9408
2017-07-30T12:58:11.229Z,22912
2017-07-30T12:59:12.810Z,6268
2017-07-30T13:00:14.400Z,18848
2017-07-30T13:01:15.759Z,27392
2017-07-30T13:02:17.269Z,20640
2017-07-30T13:03:18.662Z,30784
2017-07-30T13:04:20.188Z,31008
2017-07-30T13:05:22.032Z,30208
2017-07-30T13:06:23.739Z,29024
2017-07-30T13:07:25.473Z,32128
2017-07-30T13:08:26.961Z,30528
2017-07-30T13:09:28.266Z,35552
2017-07-30T13:10:29.888Z,35936
2017-07-30T13:11:31.508Z,24448
2017-07-30T13:12:32.921Z,6092
2017-07-30T13:13:34.334Z,31360
2017-07-30T13:14:35.742Z,30848
2017-07-30T13:15:37.196Z,35168
2017-07-30T13:16:38.683Z,25696
2017-07-30T13:17:40.695Z,40928
2017-07-30T13:18:42.157Z,7480
2017-07-30T13:19:43.571Z,6268
2017-07-30T13:20:45.116Z,38560
2017-07-30T13:21:46.891Z,36032
2017-07-30T13:22:48.634Z,4940
2017-07-30T13:23:50.071Z,4040
2017-07-30T13:24:51.480Z,5116
2017-07-30T13:25:53.126Z,7584
2017-07-30T13:26:54.632Z,5776
2017-07-30T13:27:56.037Z,37024
2017-07-30T13:28:57.448Z,28256
2017-07-30T13:29:58.899Z,8840
2017-07-30T13:31:00.948Z,4864
2017-07-30T13:32:02.811Z,9780
2017-07-30T13:33:04.969Z,11536
2017-07-30T13:34:06.646Z,15828
2017-07-30T13:35:08.257Z,8644
2017-07-30T13:36:09.633Z,9004
2017-07-30T13:37:11.041Z,6964
2017-07-30T13:38:12.937Z,6456
2017-07-30T13:39:14.362Z,5440
2017-07-30T13:40:15.770Z,5036
2017-07-30T13:41:17.180Z,6012
2017-07-30T13:42:19.202Z,21984
2017-07-30T13:43:21.048Z,10928
2017-07-30T13:44:22.994Z,7376
2017-07-30T13:45:24.613Z,7256
2017-07-30T13:46:26.196Z,6204
2017-07-30T13:47:27.981Z,36896
2017-07-30T13:48:29.392Z,36224
2017-07-30T13:49:31.117Z,34848
2017-07-30T13:50:32.783Z,14072
2017-07-30T13:51:34.585Z,26208
2017-07-30T13:52:36.426Z,4956
2017-07-30T13:53:38.119Z,5096
2017-07-30T13:54:39.571Z,5640
2017-07-30T13:55:41.000Z,5044
2017-07-30T13:56:44.127Z,10924
2017-07-30T13:57:45.409Z,35296
2017-07-30T13:58:46.817Z,35776
2017-07-30T13:59:48.470Z,31520
2017-07-30T14:00:50.117Z,34368
2017-07-30T14:01:51.821Z,33664
2017-07-30T14:02:53.152Z,10300
2017-07-30T14:03:54.774Z,6052
2017-07-30T14:04:56.691Z,23296
2017-07-30T14:05:58.292Z,33344
2017-07-30T14:06:59.961Z,31776
2017-07-30T14:08:01.389Z,31296
2017-07-30T14:09:02.821Z,31456
2017-07-30T14:10:04.440Z,30464
2017-07-30T14:11:05.995Z,29760
2017-07-30T14:12:07.624Z,24928
2017-07-30T14:13:08.931Z,23808
2017-07-30T14:14:10.344Z,29920
2017-07-30T14:15:11.860Z,29280
2017-07-30T14:16:13.656Z,9108
2017-07-30T14:17:15.112Z,4724
2017-07-30T14:18:16.522Z,11444
2017-07-30T14:19:17.969Z,10076
2017-07-30T14:20:19.760Z,11408
2017-07-30T14:21:21.468Z,28800
2017-07-30T14:22:22.877Z,28512
2017-07-30T14:23:24.292Z,24704
2017-07-30T14:24:25.807Z,26624
2017-07-30T14:25:27.540Z,26592
2017-07-30T14:26:29.251Z,26368
2017-07-30T14:27:30.662Z,26432
2017-07-30T14:28:32.070Z,25952
2017-07-30T14:29:33.858Z,25856
2017-07-30T14:30:36.273Z,25696
2017-07-30T14:31:37.717Z,16960
2017-07-30T14:32:39.250Z,8224
2017-07-30T14:33:40.895Z,21056
2017-07-30T14:34:42.415Z,21600
2017-07-30T14:35:43.830Z,20032
2017-07-30T14:36:45.284Z,22112
2017-07-30T14:37:46.710Z,23456
2017-07-30T14:38:48.126Z,20576